KHVS/HVS METAR and TAF weather

Enter ICAO airport designator
Station Type Date Time Source
KHVS METAR 2022/11/26 08:15 UTC NOAA

KHVS 260815Z AUTO 02006KT 10SM CLR 10/03 A3014 RMK AO2


Station Type Date Time Source
KHVS Decoded METAR 2022/11/26 08:15 UTC NOAA

Station name not available
Nov 26, 2022 - 03:15 AM EST / 2022.11.26 0815 UTC
Wind: from the NNE (020 degrees) at 7 MPH (6 KT):0
Visibility: 10 mile(s):0
Sky conditions: clear
Temperature: 50 F (10 C)
Dew Point: 37 F (3 C)
Relative Humidity: 61%
Pressure (altimeter): 30.14 in. Hg (1020 hPa)
ob: KHVS 260815Z AUTO 02006KT 10SM CLR 10/03 A3014 RMK AO2
cycle: 8

Station Type Date Time Source
KHVS TAF UTC NOAA

Error!

Example: see airport list